Time;durP1;ratioP1;P1;durP2;ratioP2;P2;SDS_P1;SDS_P2;PMS_P1;PMS_P2;Temp;Humidity;BMP_temperature;BMP_pressure;BME280_temperature;BME280_humidity;BME280_pressure;Samples;Min_cycle;Max_cycle;Signal;HPM_P1;HPM_P2
2024/01/15 00:02:22;;;;;;;21.00;14.90;;;;;;;-2.67;71.49;98849.30;105633;1254;61369;-66
2024/01/15 00:04:49;;;;;;;21.70;14.20;;;;;;;-2.65;71.55;98850.25;105407;1254;64119;-67
2024/01/15 00:07:16;;;;;;;20.50;14.40;;;;;;;-2.64;71.62;98848.45;105544;1254;61385;-67
2024/01/15 00:09:43;;;;;;;19.70;14.00;;;;;;;-2.61;71.67;98849.02;105534;1254;61228;-68
2024/01/15 00:12:10;;;;;;;21.00;13.80;;;;;;;-2.59;71.71;98852.86;105568;1258;65925;-68
2024/01/15 00:14:37;;;;;;;22.20;14.50;;;;;;;-2.57;71.66;98854.85;105661;1254;61892;-67
2024/01/15 00:17:04;;;;;;;19.00;13.50;;;;;;;-2.49;71.64;98853.77;105610;1254;64195;-68
2024/01/15 00:19:32;;;;;;;19.90;14.50;;;;;;;-2.01;70.46;98848.17;105553;1254;61340;-67
2024/01/15 00:22:05;;;;;;;19.80;13.60;;;;;;;-1.92;69.97;98846.34;105628;1254;61344;-68
2024/01/15 00:24:32;;;;;;;20.00;14.10;;;;;;;-1.92;69.85;98842.00;105603;1259;65820;-68
2024/01/15 00:26:59;;;;;;;23.60;14.70;;;;;;;-1.92;69.71;98837.02;105659;1254;61328;-68
2024/01/15 00:29:26;;;;;;;21.10;14.00;;;;;;;-1.90;69.67;98832.95;105594;1254;64092;-68
2024/01/15 00:31:53;;;;;;;19.80;13.60;;;;;;;-1.89;69.47;98832.86;105664;1254;61314;-68
2024/01/15 00:34:20;;;;;;;18.70;13.10;;;;;;;-1.89;69.54;98831.46;105703;1258;61446;-67
2024/01/15 00:36:47;;;;;;;20.90;14.60;;;;;;;-1.88;69.46;98831.78;105569;1257;66025;-67
2024/01/15 00:39:14;;;;;;;19.90;14.00;;;;;;;-1.87;69.39;98832.93;105693;1254;61369;-66
2024/01/15 00:41:41;;;;;;;18.30;13.20;;;;;;;-1.86;69.33;98831.30;105517;1254;63860;-67
2024/01/15 00:44:08;;;;;;;21.60;13.60;;;;;;;-1.84;69.39;98828.09;105649;1254;61247;-67
2024/01/15 00:46:47;;;;;;;19.40;13.20;;;;;;;-1.81;69.36;98825.72;105647;1254;61340;-66
2024/01/15 00:49:14;;;;;;;18.90;13.00;;;;;;;-1.79;69.27;98823.16;105476;1260;66023;-67
2024/01/15 00:51:42;;;;;;;19.80;13.40;;;;;;;-1.78;69.22;98821.55;105625;1259;61366;-68
2024/01/15 00:54:09;;;;;;;20.10;13.80;;;;;;;-1.76;69.19;98816.61;105869;1254;63822;-68
2024/01/15 00:56:36;;;;;;;17.90;12.50;;;;;;;-1.74;69.15;98814.80;105835;1254;61355;-67
2024/01/15 00:59:03;;;;;;;19.60;13.20;;;;;;;-1.72;69.09;98812.30;105692;1257;60346;-68
2024/01/15 01:01:30;;;;;;;18.10;11.80;;;;;;;-1.70;69.05;98811.69;105990;1253;65888;-67
2024/01/15 01:03:57;;;;;;;19.10;12.60;;;;;;;-1.69;69.05;98810.58;105901;1254;61278;-68
2024/01/15 01:06:24;;;;;;;18.10;11.90;;;;;;;-1.67;69.06;98814.61;105689;1254;64092;-67
2024/01/15 01:08:51;;;;;;;18.50;13.00;;;;;;;-1.65;69.01;98815.71;105686;1254;61374;-67
2024/01/15 01:11:18;;;;;;;18.00;12.20;;;;;;;-1.63;69.02;98812.33;105643;1254;61259;-67
2024/01/15 01:13:45;;;;;;;18.50;12.40;;;;;;;-1.61;69.03;98810.47;105639;1257;65940;-67
2024/01/15 01:16:12;;;;;;;16.90;11.90;;;;;;;-1.59;68.99;98809.15;105607;1254;62029;-67
2024/01/15 01:18:39;;;;;;;18.00;12.00;;;;;;;-1.58;68.94;98808.73;105494;1254;64008;-68
2024/01/15 01:21:06;;;;;;;17.30;11.80;;;;;;;-1.56;68.88;98809.48;105626;1254;61266;-68
2024/01/15 01:23:33;;;;;;;17.70;12.40;;;;;;;-1.55;68.82;98808.20;105637;1254;61297;-68
2024/01/15 01:26:00;;;;;;;16.70;11.80;;;;;;;-1.53;68.86;98812.12;105561;1254;65823;-69
2024/01/15 01:28:28;;;;;;;16.90;11.90;;;;;;;-1.52;68.84;98807.21;105584;1254;61249;-66
2024/01/15 01:30:55;;;;;;;16.50;11.50;;;;;;;-1.50;68.80;98805.18;105599;1255;63800;-67
2024/01/15 01:33:22;;;;;;;17.10;12.00;;;;;;;-1.48;68.77;98806.45;105584;1257;61369;-66
2024/01/15 01:35:49;;;;;;;17.40;12.20;;;;;;;-1.46;68.71;98808.58;105574;1254;61265;-69
2024/01/15 01:38:16;;;;;;;16.30;11.70;;;;;;;-1.45;68.63;98805.42;105543;1256;65809;-67
2024/01/15 01:40:43;;;;;;;16.10;10.90;;;;;;;-1.44;68.60;98800.38;105565;1256;61349;-68
2024/01/15 01:43:10;;;;;;;17.10;11.70;;;;;;;-1.42;68.60;98802.20;105341;1261;64121;-68
2024/01/15 01:45:38;;;;;;;16.90;11.80;;;;;;;-1.42;68.49;98803.90;105525;1254;61346;-69
2024/01/15 01:48:05;;;;;;;16.50;11.70;;;;;;;-1.41;68.43;98802.67;105530;1254;61235;-67
2024/01/15 01:50:33;;;;;;;17.30;11.70;;;;;;;-1.41;68.39;98803.53;105600;1257;65766;-67
2024/01/15 01:53:00;;;;;;;16.50;11.70;;;;;;;-1.42;68.31;98807.02;105349;1254;61636;-68
2024/01/15 01:55:27;;;;;;;18.50;11.80;;;;;;;-1.42;68.35;98808.27;105517;1257;63977;-67
2024/01/15 01:57:55;;;;;;;17.60;11.40;;;;;;;-1.44;68.26;98807.82;105713;1254;61285;-68
2024/01/15 02:00:22;;;;;;;17.50;11.10;;;;;;;-1.43;68.21;98809.00;105486;1258;61335;-67
2024/01/15 02:02:49;;;;;;;16.30;11.50;;;;;;;-1.43;68.18;98811.05;105651;1257;66076;-67
2024/01/15 02:05:18;;;;;;;16.80;11.40;;;;;;;-1.43;68.15;98811.56;105653;1254;61427;-66
2024/01/15 02:07:45;;;;;;;17.40;11.70;;;;;;;-1.42;68.14;98809.27;105594;1256;64114;-68
2024/01/15 02:10:12;;;;;;;16.70;12.00;;;;;;;-1.40;68.13;98803.80;105630;1260;61331;-68
2024/01/15 02:12:39;;;;;;;17.90;11.70;;;;;;;-1.38;68.11;98803.86;105615;1254;61324;-70
2024/01/15 02:15:06;;;;;;;16.70;11.40;;;;;;;-1.37;68.02;98806.02;105657;1258;66013;-68
2024/01/15 02:17:33;;;;;;;16.90;11.80;;;;;;;-1.35;68.00;98803.52;105719;1254;61300;-67
2024/01/15 02:19:59;;;;;;;16.80;11.30;;;;;;;-1.33;68.02;98799.42;105775;1253;64136;-67
2024/01/15 02:22:27;;;;;;;16.80;11.60;;;;;;;-1.32;68.00;98802.14;105738;1254;61288;-69
2024/01/15 02:24:53;;;;;;;19.50;12.50;;;;;;;-1.30;67.97;98798.93;105660;1257;61436;-67
2024/01/15 02:27:20;;;;;;;16.50;11.20;;;;;;;-1.29;67.97;98800.55;105575;1259;66105;-68
2024/01/15 02:29:47;;;;;;;15.70;11.60;;;;;;;-1.27;67.88;98805.97;105661;1254;61384;-67
2024/01/15 02:32:14;;;;;;;16.40;11.40;;;;;;;-1.24;67.91;98802.90;105368;1254;64020;-68
2024/01/15 02:34:41;;;;;;;16.20;11.70;;;;;;;-1.22;67.87;98804.32;105725;1254;61323;-69
2024/01/15 02:37:08;;;;;;;15.40;11.00;;;;;;;-1.20;67.80;98804.02;105629;1254;61277;-70
2024/01/15 02:39:35;;;;;;;14.20;10.80;;;;;;;-1.17;67.79;98805.39;105733;1255;66028;-70
2024/01/15 02:42:02;;;;;;;16.10;11.20;;;;;;;-1.15;67.75;98805.31;105722;1257;61180;-68
2024/01/15 02:44:28;;;;;;;16.70;10.70;;;;;;;-1.13;67.72;98804.85;105641;1255;63968;-67
2024/01/15 02:46:55;;;;;;;14.70;10.90;;;;;;;-1.11;67.68;98806.65;105634;1253;61423;-68
2024/01/15 02:49:22;;;;;;;17.10;11.70;;;;;;;-1.09;67.67;98807.07;105709;1254;61243;-68
2024/01/15 02:51:49;;;;;;;14.70;10.70;;;;;;;-1.07;67.66;98805.02;105727;1257;66089;-68
2024/01/15 02:54:16;;;;;;;13.50;10.20;;;;;;;-1.05;67.63;98803.36;105698;1261;61340;-68
2024/01/15 02:56:43;;;;;;;16.10;11.60;;;;;;;-1.03;67.60;98802.73;105608;1257;63742;-67
2024/01/15 02:59:10;;;;;;;13.40;10.60;;;;;;;-1.00;67.57;98800.51;105513;1254;61315;-68
2024/01/15 03:01:37;;;;;;;15.50;10.40;;;;;;;-0.98;67.51;98804.48;105745;1254;61274;-72
2024/01/15 03:04:04;;;;;;;14.20;10.20;;;;;;;-0.96;67.41;98809.73;105682;1257;65985;-68
2024/01/15 03:06:31;;;;;;;15.80;10.60;;;;;;;-0.94;67.39;98813.09;105634;1254;61398;-67
2024/01/15 03:08:57;;;;;;;14.80;10.30;;;;;;;-0.92;67.32;98819.34;105293;1254;63897;-67
2024/01/15 03:11:24;;;;;;;15.90;10.80;;;;;;;-0.90;67.23;98821.82;105499;1258;61275;-68
2024/01/15 03:13:51;;;;;;;14.90;10.00;;;;;;;-0.88;67.17;98820.52;105578;1253;61356;-68
2024/01/15 03:16:19;;;;;;;14.90;10.50;;;;;;;-0.87;67.11;98824.92;105627;1257;65961;-68
2024/01/15 03:18:46;;;;;;;15.90;11.10;;;;;;;-0.84;67.08;98826.71;105683;1254;61277;-68
2024/01/15 03:21:13;;;;;;;15.00;10.60;;;;;;;-0.83;67.00;98826.49;105665;1255;64014;-68
2024/01/15 03:23:40;;;;;;;15.00;10.40;;;;;;;-0.83;66.93;98821.79;105609;1254;61314;-68
2024/01/15 03:26:07;;;;;;;13.90;10.40;;;;;;;-0.81;66.87;98823.09;105724;1254;61248;-69
2024/01/15 03:28:34;;;;;;;15.70;10.80;;;;;;;-0.80;66.75;98821.45;105700;1257;66008;-68
2024/01/15 03:31:01;;;;;;;16.00;11.00;;;;;;;-0.79;66.76;98824.52;105650;1254;61366;-68
2024/01/15 03:33:28;;;;;;;15.00;10.60;;;;;;;-0.78;66.74;98821.67;105549;1258;64007;-67
2024/01/15 03:35:55;;;;;;;14.80;10.60;;;;;;;-0.78;66.63;98819.57;105676;1254;63081;-67
2024/01/15 03:38:23;;;;;;;15.30;10.90;;;;;;;-0.77;66.66;98820.57;105688;1254;61248;-67
2024/01/15 03:40:49;;;;;;;15.50;10.90;;;;;;;-0.75;66.60;98821.88;105586;1257;66096;-67
2024/01/15 03:43:16;;;;;;;14.90;10.10;;;;;;;-0.75;66.51;98825.32;105543;1254;61358;-68
2024/01/15 03:45:43;;;;;;;15.10;10.30;;;;;;;-0.75;66.50;98828.77;105647;1257;64154;-68
2024/01/15 03:48:10;;;;;;;14.20;10.50;;;;;;;-0.75;66.47;98834.64;105554;1254;61415;-67
2024/01/15 03:50:37;;;;;;;15.30;10.30;;;;;;;-0.75;66.43;98832.72;105621;1257;61262;-68
2024/01/15 03:53:04;;;;;;;13.90;9.90;;;;;;;-0.74;66.46;98839.27;105718;1257;66000;-68
2024/01/15 03:55:32;;;;;;;15.00;10.40;;;;;;;-0.74;66.43;98836.63;105678;1254;61366;-68
2024/01/15 03:57:59;;;;;;;14.90;10.30;;;;;;;-0.74;66.47;98834.04;105610;1257;64007;-68
2024/01/15 04:00:26;;;;;;;17.10;10.50;;;;;;;-0.74;66.42;98837.66;105464;1254;61219;-68
2024/01/15 04:02:54;;;;;;;14.90;10.00;;;;;;;-0.74;66.41;98838.91;106064;1254;61212;-68
2024/01/15 04:05:20;;;;;;;13.80;9.70;;;;;;;-0.74;66.44;98844.42;105598;1257;65888;-66
2024/01/15 04:07:47;;;;;;;13.70;9.90;;;;;;;-0.74;66.38;98847.52;105497;1258;61338;-66
2024/01/15 04:10:14;;;;;;;15.40;10.50;;;;;;;-0.73;66.33;98848.00;105466;1258;64110;-67
2024/01/15 04:12:41;;;;;;;16.40;10.40;;;;;;;-0.73;66.30;98842.46;105563;1254;61193;-68
2024/01/15 04:15:08;;;;;;;15.00;10.70;;;;;;;-0.72;66.32;98840.85;105632;1259;61213;-68
2024/01/15 04:17:36;;;;;;;13.80;9.50;;;;;;;-0.71;66.28;98840.11;105699;1254;65988;-69
2024/01/15 04:20:03;;;;;;;14.70;10.60;;;;;;;-0.69;66.24;98839.81;105574;1254;61291;-68
2024/01/15 04:22:30;;;;;;;13.70;9.90;;;;;;;-0.68;66.18;98845.80;105412;1254;64104;-67
2024/01/15 04:24:57;;;;;;;13.90;10.60;;;;;;;-0.68;66.09;98844.05;105563;1254;61328;-68
2024/01/15 04:27:24;;;;;;;14.90;10.80;;;;;;;-0.68;66.11;98841.28;105584;1254;61251;-68
2024/01/15 04:29:51;;;;;;;15.50;10.70;;;;;;;-0.67;66.03;98842.63;105682;1257;65694;-68
2024/01/15 04:32:18;;;;;;;14.60;10.70;;;;;;;-0.67;65.92;98842.64;105490;1254;61341;-68
2024/01/15 04:34:45;;;;;;;16.10;10.60;;;;;;;-0.66;65.85;98843.49;105743;1255;63692;-69
2024/01/15 04:37:13;;;;;;;16.70;11.30;;;;;;;-0.66;65.74;98846.73;105701;1257;61262;-68
2024/01/15 04:39:40;;;;;;;15.50;10.90;;;;;;;-0.66;65.68;98851.90;105602;1253;61282;-68
2024/01/15 04:42:07;;;;;;;15.20;10.90;;;;;;;-0.67;65.63;98854.55;105617;1257;66005;-68
2024/01/15 04:44:34;;;;;;;14.80;10.80;;;;;;;-0.67;65.53;98860.43;105633;1254;61360;-68
2024/01/15 04:47:01;;;;;;;15.70;10.70;;;;;;;-0.67;65.45;98865.95;105622;1257;64018;-69
2024/01/15 04:49:29;;;;;;;16.00;10.60;;;;;;;-0.67;65.41;98865.64;105662;1253;61343;-66
2024/01/15 04:51:56;;;;;;;14.50;10.50;;;;;;;-0.67;65.23;98857.14;105715;1254;61363;-68
2024/01/15 04:54:23;;;;;;;15.60;11.20;;;;;;;-0.66;65.20;98849.14;105628;1257;66114;-69
2024/01/15 04:56:50;;;;;;;16.30;11.40;;;;;;;-0.64;65.16;98849.71;105555;1254;61354;-67
2024/01/15 04:59:17;;;;;;;14.20;10.50;;;;;;;-0.62;65.07;98854.60;105915;1254;64085;-68
2024/01/15 05:01:44;;;;;;;17.70;10.80;;;;;;;-0.61;64.96;98853.01;105626;1254;61280;-68
2024/01/15 05:04:11;;;;;;;14.80;10.50;;;;;;;-0.62;64.90;98848.52;105625;1254;61336;-68
2024/01/15 05:06:38;;;;;;;14.20;10.40;;;;;;;-0.61;64.83;98843.85;105643;1257;66054;-67
2024/01/15 05:09:05;;;;;;;19.10;11.70;;;;;;;-0.62;64.74;98843.52;105623;1254;61439;-69
2024/01/15 05:11:32;;;;;;;16.30;10.90;;;;;;;-0.62;64.76;98846.30;105581;1257;64046;-67
2024/01/15 05:13:59;;;;;;;15.90;11.10;;;;;;;-0.62;64.76;98851.16;105598;1254;61231;-68
2024/01/15 05:16:26;;;;;;;16.70;12.10;;;;;;;-0.63;64.72;98848.30;105653;1254;61773;-68
2024/01/15 05:18:52;;;;;;;18.10;11.90;;;;;;;-0.63;64.76;98850.02;105666;1257;66373;-68
2024/01/15 05:21:19;;;;;;;15.80;10.80;;;;;;;-0.62;64.70;98851.66;105511;1254;61693;-66
2024/01/15 05:23:45;;;;;;;15.90;10.70;;;;;;;-0.61;64.65;98853.36;105527;1257;62397;-70
2024/01/15 05:26:12;;;;;;;17.10;10.90;;;;;;;-0.61;64.61;98856.64;105654;1254;61343;-67
2024/01/15 05:28:42;;;;;;;15.40;10.90;;;;;;;-0.62;64.60;98855.14;105538;1254;61260;-67
2024/01/15 05:31:09;;;;;;;15.10;10.70;;;;;;;-0.63;64.50;98856.02;105554;1254;64601;-66
2024/01/15 05:33:37;;;;;;;14.90;10.60;;;;;;;-0.62;64.44;98860.48;105637;1254;61260;-70
2024/01/15 05:36:05;;;;;;;15.80;10.70;;;;;;;-0.63;64.44;98857.95;105644;1254;64270;-68
2024/01/15 05:38:32;;;;;;;16.90;11.60;;;;;;;-0.62;64.35;98856.34;105709;1253;61319;-68
2024/01/15 05:40:58;;;;;;;15.40;11.10;;;;;;;-0.62;64.30;98856.34;105517;1254;61928;-70
2024/01/15 05:43:25;;;;;;;17.40;11.80;;;;;;;-0.61;64.22;98858.50;105708;1255;66010;-69
2024/01/15 05:45:52;;;;;;;16.10;11.30;;;;;;;-0.60;64.13;98859.66;105581;1256;61335;-68
2024/01/15 05:48:19;;;;;;;15.20;10.70;;;;;;;-0.60;64.09;98858.08;105679;1255;64148;-69
2024/01/15 05:50:46;;;;;;;18.80;12.70;;;;;;;-0.59;63.97;98858.90;105686;1254;61336;-68
2024/01/15 05:53:12;;;;;;;18.10;12.30;;;;;;;-0.58;63.83;98859.23;105611;1254;61392;-67
2024/01/15 05:55:39;;;;;;;17.40;11.30;;;;;;;-0.58;63.79;98869.94;105539;1258;66114;-68
2024/01/15 05:58:07;;;;;;;16.60;12.30;;;;;;;-0.57;63.74;98872.34;105492;1254;61425;-68
2024/01/15 06:00:35;;;;;;;21.90;14.70;;;;;;;-0.57;63.68;98865.58;105613;1257;63820;-69
2024/01/15 06:03:02;;;;;;;19.40;12.80;;;;;;;-0.56;63.65;98867.06;105755;1255;61230;-68
2024/01/15 06:05:29;;;;;;;23.20;13.90;;;;;;;-0.56;63.56;98872.27;105686;1254;61273;-67
2024/01/15 06:07:56;;;;;;;20.00;14.60;;;;;;;-0.57;63.46;98869.23;105616;1254;64704;-69
2024/01/15 06:10:22;;;;;;;17.50;12.90;;;;;;;-0.58;63.44;98862.86;105659;1257;61292;-69
2024/01/15 06:12:49;;;;;;;21.10;12.90;;;;;;;-0.57;63.37;98863.87;105599;1254;64025;-68
2024/01/15 06:15:17;;;;;;;17.80;13.00;;;;;;;-0.55;63.29;98864.45;105551;1254;61227;-67
2024/01/15 06:17:44;;;;;;;22.40;16.00;;;;;;;-0.54;63.28;98862.64;105780;1254;61339;-68
2024/01/15 06:20:11;;;;;;;21.00;14.00;;;;;;;-0.53;63.32;98862.90;105724;1257;75132;-69
2024/01/15 06:22:39;;;;;;;21.00;13.30;;;;;;;-0.52;63.23;98867.34;105640;1254;61372;-67
2024/01/15 06:25:09;;;;;;;18.90;12.50;;;;;;;-0.52;63.18;98870.98;105558;1254;64159;-68
2024/01/15 06:27:36;;;;;;;18.40;12.20;;;;;;;-0.52;63.15;98871.85;105622;1254;61664;-68
2024/01/15 06:30:04;;;;;;;18.60;12.40;;;;;;;-0.51;63.10;98874.92;105490;1254;61309;-68
2024/01/15 06:32:31;;;;;;;20.60;13.50;;;;;;;-0.50;63.04;98876.55;105517;1258;65979;-68
2024/01/15 06:34:58;;;;;;;30.80;19.80;;;;;;;-0.49;63.00;98876.33;105672;1257;61393;-69
2024/01/15 06:37:25;;;;;;;22.00;14.00;;;;;;;-0.50;62.90;98877.42;105583;1254;63682;-69
2024/01/15 06:39:52;;;;;;;28.90;18.90;;;;;;;-0.50;62.88;98877.05;105697;1254;61286;-68
2024/01/15 06:42:21;;;;;;;20.10;13.30;;;;;;;-0.48;62.86;98880.61;105642;1254;61213;-68
2024/01/15 06:44:48;;;;;;;26.70;17.40;;;;;;;-0.47;62.72;98879.71;105693;1257;65867;-68
2024/01/15 06:47:17;;;;;;;22.70;16.10;;;;;;;-0.46;62.69;98874.98;105635;1255;61344;-68
2024/01/15 06:49:44;;;;;;;30.00;21.20;;;;;;;-0.44;62.61;98868.63;105633;1254;64128;-68
2024/01/15 06:52:12;;;;;;;20.60;14.90;;;;;;;-0.41;62.58;98871.02;105670;1257;61268;-70
2024/01/15 06:54:39;;;;;;;24.20;17.10;;;;;;;-0.39;62.42;98865.88;105617;1254;61265;-66
2024/01/15 06:57:06;;;;;;;19.30;14.60;;;;;;;-0.37;62.42;98863.50;105700;1257;65875;-68
2024/01/15 06:59:35;;;;;;;20.70;14.90;;;;;;;-0.35;62.33;98860.45;105674;1254;61360;-69
2024/01/15 07:02:02;;;;;;;18.10;12.40;;;;;;;-0.32;62.40;98860.29;105930;1257;63964;-68
2024/01/15 07:04:29;;;;;;;16.30;12.10;;;;;;;-0.29;62.34;98857.67;105450;1254;61287;-69
2024/01/15 07:06:56;;;;;;;18.10;13.00;;;;;;;-0.27;62.29;98858.08;105503;1254;61271;-67
2024/01/15 07:09:23;;;;;;;18.10;12.70;;;;;;;-0.24;62.23;98864.67;105679;1257;66093;-68
2024/01/15 07:11:51;;;;;;;18.40;12.60;;;;;;;-0.22;62.10;98869.21;105631;1254;61339;-69
2024/01/15 07:14:18;;;;;;;18.00;13.50;;;;;;;-0.20;62.04;98863.59;105674;1254;64030;-68
2024/01/15 07:16:45;;;;;;;19.50;13.10;;;;;;;-0.17;61.94;98867.73;105654;1254;61333;-67
2024/01/15 07:19:15;;;;;;;16.90;11.90;;;;;;;-0.15;61.77;98862.74;105471;1254;61367;-68
2024/01/15 07:21:43;;;;;;;16.70;11.50;;;;;;;-0.13;61.64;98864.67;105716;1257;66091;-70
2024/01/15 07:24:10;;;;;;;17.10;12.30;;;;;;;-0.11;61.55;98867.86;105538;1261;61362;-67
2024/01/15 07:26:37;;;;;;;18.20;13.00;;;;;;;-0.10;61.50;98872.45;105611;1258;63807;-68
2024/01/15 07:29:04;;;;;;;17.30;11.50;;;;;;;-0.08;61.40;98876.51;105579;1254;61332;-68
2024/01/15 07:31:32;;;;;;;19.00;13.50;;;;;;;-0.07;61.33;98880.60;105552;1253;61324;-67
2024/01/15 07:34:00;;;;;;;19.20;13.60;;;;;;;-0.06;61.25;98884.67;105527;1258;65736;-66
2024/01/15 07:36:27;;;;;;;19.50;12.10;;;;;;;-0.06;61.02;98884.65;105632;1255;61257;-68
2024/01/15 07:38:54;;;;;;;17.20;12.00;;;;;;;-0.06;60.88;98886.05;105598;1256;64015;-68
2024/01/15 07:41:20;;;;;;;15.90;11.50;;;;;;;-0.05;60.90;98878.89;105273;1254;61280;-67
2024/01/15 07:43:47;;;;;;;18.60;12.00;;;;;;;-0.03;60.90;98874.77;105599;1254;61337;-68
2024/01/15 07:46:14;;;;;;;17.30;12.20;;;;;;;0.02;60.91;98876.11;105610;1257;66009;-68
2024/01/15 07:48:42;;;;;;;18.10;12.70;;;;;;;0.05;60.85;98877.12;105626;1254;61331;-68
2024/01/15 07:51:09;;;;;;;18.10;12.00;;;;;;;0.07;60.80;98879.42;105626;1256;64043;-67
2024/01/15 07:53:35;;;;;;;18.60;12.90;;;;;;;0.07;60.59;98879.61;105593;1253;61400;-68
2024/01/15 07:56:02;;;;;;;19.60;13.40;;;;;;;0.06;60.63;98874.96;105640;1254;61245;-68
2024/01/15 07:58:29;;;;;;;19.50;12.80;;;;;;;0.07;60.59;98872.14;105649;1257;65907;-69
2024/01/15 08:00:57;;;;;;;17.10;12.10;;;;;;;0.07;60.59;98867.45;105554;1254;61328;-68
2024/01/15 08:03:27;;;;;;;15.80;12.40;;;;;;;0.08;60.53;98864.64;105820;1254;64008;-66
2024/01/15 08:05:57;;;;;;;18.40;13.10;;;;;;;0.10;60.44;98866.27;105766;1253;61257;-69
2024/01/15 08:08:24;;;;;;;18.00;13.10;;;;;;;0.12;60.34;98862.87;105646;1255;61360;-68
2024/01/15 08:10:52;;;;;;;17.10;12.10;;;;;;;0.13;60.30;98861.20;105583;1255;66884;-67
2024/01/15 08:13:20;;;;;;;18.00;12.40;;;;;;;0.15;60.14;98859.20;105531;1254;61233;-69
2024/01/15 08:15:46;;;;;;;18.80;12.80;;;;;;;0.16;60.12;98856.86;105727;1258;64050;-68
2024/01/15 08:18:13;;;;;;;18.70;12.40;;;;;;;0.17;60.14;98860.27;105788;1254;61213;-68
2024/01/15 08:20:41;;;;;;;20.00;13.10;;;;;;;0.17;60.00;98865.14;105645;1254;61335;-67
2024/01/15 08:23:08;;;;;;;19.40;12.60;;;;;;;0.17;59.95;98867.00;105654;1256;66052;-69
2024/01/15 08:25:35;;;;;;;18.20;11.90;;;;;;;0.18;59.93;98864.02;105630;1254;61254;-67
2024/01/15 08:28:05;;;;;;;19.50;12.60;;;;;;;0.17;59.87;98865.44;105593;1256;64013;-68
2024/01/15 08:30:32;;;;;;;19.20;12.40;;;;;;;0.16;59.84;98870.91;105681;1254;61301;-67
2024/01/15 08:33:01;;;;;;;19.90;13.40;;;;;;;0.15;59.94;98870.62;105632;1254;61107;-68
2024/01/15 08:35:40;;;;;;;20.30;13.20;;;;;;;0.12;59.81;98868.39;105429;1260;68186;-68
2024/01/15 08:38:07;;;;;;;18.90;12.60;;;;;;;0.10;59.82;98866.43;105656;1254;61226;-68
2024/01/15 08:40:58;;;;;;;16.70;11.80;;;;;;;0.09;59.90;98869.11;105744;1254;64689;-67
2024/01/15 08:43:54;;;;;;;20.30;13.20;;;;;;;0.08;59.91;98866.91;105400;1254;61285;-68
2024/01/15 08:46:21;;;;;;;19.70;12.50;;;;;;;0.07;59.87;98871.11;105704;1255;61280;-68
2024/01/15 08:48:48;;;;;;;17.70;11.60;;;;;;;0.06;59.72;98862.19;105637;1257;67811;-69
2024/01/15 08:51:15;;;;;;;18.80;12.60;;;;;;;0.04;59.71;98864.88;105757;1257;61161;-70
2024/01/15 08:53:42;;;;;;;18.40;12.40;;;;;;;0.03;59.73;98863.05;105698;1258;63834;-68
2024/01/15 08:56:09;;;;;;;18.00;11.80;;;;;;;0.02;59.70;98866.56;105838;1253;61261;-69
2024/01/15 08:58:36;;;;;;;18.60;11.50;;;;;;;0.02;59.38;98870.71;105734;1257;61235;-68
2024/01/15 09:01:03;;;;;;;17.70;11.40;;;;;;;0.03;59.23;98873.80;105767;1257;67840;-71
2024/01/15 09:03:31;;;;;;;17.00;11.00;;;;;;;0.05;59.04;98879.17;105824;1257;61352;-70
2024/01/15 09:05:58;;;;;;;17.70;11.10;;;;;;;0.06;58.77;98884.99;106065;1254;65804;-67
2024/01/15 09:08:27;;;;;;;17.80;11.20;;;;;;;0.06;58.73;98883.95;105493;1255;61576;-68
2024/01/15 09:10:54;;;;;;;17.80;11.40;;;;;;;0.08;58.74;98883.52;105553;1258;61261;-67
2024/01/15 09:13:21;;;;;;;21.30;12.90;;;;;;;0.08;58.55;98881.25;105598;1260;65903;-68
2024/01/15 09:15:48;;;;;;;19.60;12.50;;;;;;;0.08;58.54;98874.14;105617;1254;61380;-67
2024/01/15 09:18:15;;;;;;;35.70;20.30;;;;;;;0.08;58.41;98873.81;105665;1256;64018;-68
2024/01/15 09:20:42;;;;;;;43.10;23.80;;;;;;;0.08;58.40;98876.55;105681;1255;61248;-67
2024/01/15 09:23:09;;;;;;;33.80;19.20;;;;;;;0.09;58.32;98874.10;105631;1255;61347;-66
2024/01/15 09:25:36;;;;;;;18.00;12.20;;;;;;;0.10;58.21;98877.67;105611;1258;67645;-69
2024/01/15 09:28:03;;;;;;;18.80;12.40;;;;;;;0.11;58.20;98878.52;105636;1254;61351;-70
2024/01/15 09:30:30;;;;;;;18.10;12.40;;;;;;;0.12;58.19;98872.92;105584;1256;64001;-68
2024/01/15 09:32:58;;;;;;;17.70;12.30;;;;;;;0.13;58.21;98870.08;105581;1253;61289;-68
2024/01/15 09:35:25;;;;;;;20.50;12.80;;;;;;;0.13;58.11;98865.23;105510;1261;61152;-69
2024/01/15 09:37:52;;;;;;;18.70;12.60;;;;;;;0.14;58.00;98860.30;105715;1255;65784;-68
2024/01/15 09:40:19;;;;;;;19.80;13.60;;;;;;;0.15;57.88;98857.66;105482;1254;61366;-68
2024/01/15 09:42:46;;;;;;;19.80;12.90;;;;;;;0.15;57.90;98861.26;105416;1254;65779;-68
2024/01/15 09:45:13;;;;;;;19.60;13.60;;;;;;;0.17;57.88;98864.23;105681;1256;61195;-66
2024/01/15 09:47:41;;;;;;;21.10;13.90;;;;;;;0.19;57.84;98859.46;105636;1255;61245;-68
2024/01/15 09:50:13;;;;;;;19.40;13.10;;;;;;;0.21;57.76;98850.38;105613;1258;67423;-68
2024/01/15 09:52:40;;;;;;;21.80;13.70;;;;;;;0.21;57.60;98847.04;105375;1254;61313;-67
2024/01/15 09:55:08;;;;;;;20.10;13.20;;;;;;;0.20;57.49;98837.07;105731;1257;66072;-69
2024/01/15 09:57:35;;;;;;;18.50;12.20;;;;;;;0.19;57.33;98832.62;105599;1257;61229;-67
2024/01/15 10:00:06;;;;;;;19.70;12.30;;;;;;;0.20;57.25;98829.97;105412;1256;61275;-69
2024/01/15 10:02:35;;;;;;;21.60;12.80;;;;;;;0.22;57.01;98816.36;105632;1254;67658;-67
2024/01/15 10:05:02;;;;;;;19.60;13.10;;;;;;;0.24;56.88;98813.84;105610;1261;61330;-67
2024/01/15 10:07:29;;;;;;;20.00;12.80;;;;;;;0.28;56.72;98813.39;105602;1261;63694;-69
2024/01/15 10:09:57;;;;;;;18.90;12.40;;;;;;;0.32;56.68;98809.17;105660;1256;61321;-71
2024/01/15 10:12:24;;;;;;;19.60;12.90;;;;;;;0.36;56.59;98810.47;105720;1254;61251;-68
2024/01/15 10:14:56;;;;;;;19.10;12.80;;;;;;;0.39;56.39;98812.16;105455;1256;66420;-67
2024/01/15 10:17:24;;;;;;;21.20;12.60;;;;;;;0.42;56.25;98812.02;105659;1256;61326;-69
2024/01/15 10:19:52;;;;;;;20.40;13.40;;;;;;;0.43;56.27;98812.27;105713;1256;65999;-68
2024/01/15 10:22:19;;;;;;;20.40;12.60;;;;;;;0.44;56.19;98807.38;105745;1253;61245;-67
2024/01/15 10:24:48;;;;;;;18.50;11.90;;;;;;;0.45;56.13;98804.71;105642;1256;61339;-68
2024/01/15 10:27:16;;;;;;;20.30;13.00;;;;;;;0.46;56.17;98804.41;105795;1258;67793;-70
2024/01/15 10:29:43;;;;;;;20.70;13.50;;;;;;;0.50;56.16;98805.27;105711;1254;61346;-68
2024/01/15 10:32:11;;;;;;;20.90;12.90;;;;;;;0.52;56.01;98805.25;105582;1256;65964;-68
2024/01/15 10:34:39;;;;;;;22.80;13.30;;;;;;;0.54;55.94;98805.98;105531;1258;61251;-69
2024/01/15 10:37:07;;;;;;;19.70;12.20;;;;;;;0.56;55.63;98803.47;105530;1256;61320;-67
2024/01/15 10:39:34;;;;;;;16.80;11.10;;;;;;;0.58;55.55;98800.59;105583;1258;67081;-67
2024/01/15 10:42:01;;;;;;;18.00;11.50;;;;;;;0.59;55.35;98795.50;105579;1254;61360;-67
2024/01/15 10:44:29;;;;;;;19.50;11.40;;;;;;;0.61;55.24;98794.48;105592;1256;63977;-69
2024/01/15 10:46:56;;;;;;;16.30;11.00;;;;;;;0.64;55.33;98788.40;105690;1254;61252;-70
2024/01/15 10:49:26;;;;;;;18.60;10.60;;;;;;;0.68;55.45;98786.41;105662;1253;61336;-68
2024/01/15 10:51:59;;;;;;;19.50;12.70;;;;;;;0.73;55.18;98780.93;105657;1257;67852;-68
2024/01/15 10:54:27;;;;;;;17.50;12.00;;;;;;;0.74;55.02;98773.36;105644;1256;61280;-68
2024/01/15 10:56:54;;;;;;;17.70;11.60;;;;;;;0.75;55.03;98760.54;105673;1256;65909;-68
2024/01/15 10:59:22;;;;;;;19.70;12.20;;;;;;;0.76;54.97;98751.79;105598;1256;61228;-68
2024/01/15 11:01:50;;;;;;;18.00;11.90;;;;;;;0.76;54.87;98749.00;105534;1259;287147;-68
2024/01/15 11:04:18;;;;;;;16.50;11.20;;;;;;;0.76;54.77;98743.30;105704;1254;65487;-68
2024/01/15 11:06:50;;;;;;;19.80;11.90;;;;;;;0.76;54.62;98747.30;105645;1256;61389;-68
2024/01/15 11:09:18;;;;;;;16.70;11.20;;;;;;;0.73;54.62;98747.63;105503;1255;64760;-68
2024/01/15 11:11:49;;;;;;;17.30;10.90;;;;;;;0.69;54.56;98749.10;105657;1254;61258;-68
2024/01/15 11:14:43;;;;;;;16.30;11.10;;;;;;;0.68;54.71;98749.88;105552;1255;61269;-69